Time;durP1;ratioP1;P1;durP2;ratioP2;P2;SDS_P1;SDS_P2;PMS_P1;PMS_P2;Temp;Humidity;BMP_temperature;BMP_pressure;BME280_temperature;BME280_humidity;BME280_pressure;Samples;Min_cycle;Max_cycle;Signal;HPM_P1;HPM_P2
2022/08/30 00:03:46;;;;;;;9.52;3.50;;;;;;;22.92;61.58;100185.09;10296737;28;20386;-73
2022/08/30 00:08:48;;;;;;;9.80;3.92;;;;;;;22.97;61.29;100201.44;10295978;28;20041;-73
2022/08/30 00:13:51;;;;;;;8.95;2.92;;;;;;;22.68;61.23;100143.91;10295841;28;20043;-73
2022/08/30 00:18:53;;;;;;;11.63;3.83;;;;;;;22.99;61.00;100203.88;10295700;28;20126;-73
2022/08/30 00:23:54;;;;;;;11.57;3.53;;;;;;;22.88;61.18;100204.78;10295679;28;20046;-73
2022/08/30 00:28:55;;;;;;;25.70;4.30;;;;;;;22.81;61.22;100205.00;10295175;28;20057;-73
2022/08/30 00:33:56;;;;;;;14.80;4.30;;;;;;;22.71;61.38;100194.88;10294618;28;20053;-73
2022/08/30 00:38:56;;;;;;;11.00;3.78;;;;;;;22.71;61.45;100204.88;10294337;28;20050;-73
2022/08/30 00:43:58;;;;;;;11.75;3.65;;;;;;;22.17;61.77;100143.28;10294243;28;20035;-73
2022/08/30 00:49:05;;;;;;;10.52;3.22;;;;;;;22.43;62.55;100203.94;10295060;28;20039;-73
2022/08/30 00:54:06;;;;;;;13.88;4.00;;;;;;;21.94;62.34;100138.03;10293922;28;20050;-73
2022/08/30 00:59:08;;;;;;;22.13;4.18;;;;;;;21.88;62.76;100147.94;10293264;28;20050;-72
2022/08/30 01:04:10;;;;;;;27.40;4.35;;;;;;;21.83;62.77;100148.69;10293712;28;20565;-72
2022/08/30 01:09:13;;;;;;;91.75;8.23;;;;;;;22.03;63.13;100199.56;10293771;28;20498;-73
2022/08/30 01:14:16;;;;;;;26.30;5.10;;;;;;;21.58;63.45;100142.88;10293907;28;20034;-72
2022/08/30 01:19:16;;;;;;;31.90;5.50;;;;;;;22.00;63.82;100218.19;10293005;28;20057;-72
2022/08/30 01:24:18;;;;;;;32.05;5.00;;;;;;;21.91;64.26;100217.78;10291906;28;20130;-72
2022/08/30 01:29:22;;;;;;;44.60;6.68;;;;;;;21.81;64.74;100234.66;10292003;28;20507;-73
2022/08/30 01:34:24;;;;;;;22.67;4.95;;;;;;;21.59;64.57;100204.78;10292483;28;20141;-72
2022/08/30 01:39:25;;;;;;;11.30;4.03;;;;;;;21.53;65.11;100200.34;10293003;28;20049;-73
2022/08/30 01:44:26;;;;;;;33.65;6.13;;;;;;;21.60;65.45;100208.34;10292535;28;20384;-73
2022/08/30 01:49:26;;;;;;;126.82;10.18;;;;;;;21.19;65.44;100148.94;10293136;28;20719;-72
2022/08/30 01:54:30;;;;;;;186.40;15.88;;;;;;;21.63;66.02;100232.19;10292152;28;20108;-72
2022/08/30 01:59:31;;;;;;;108.88;11.68;;;;;;;21.53;65.85;100237.38;10291943;28;20155;-72
2022/08/30 02:04:32;;;;;;;39.00;5.55;;;;;;;21.22;66.21;100195.44;10291338;28;20124;-73
2022/08/30 02:09:33;;;;;;;44.63;6.47;;;;;;;21.42;66.11;100229.09;10291930;28;20039;-72
2022/08/30 02:14:35;;;;;;;65.78;7.93;;;;;;;21.61;66.08;100253.22;10292328;28;20073;-73
2022/08/30 02:19:37;;;;;;;59.72;7.55;;;;;;;21.55;66.19;100257.72;10291638;28;20050;-73
2022/08/30 02:24:38;;;;;;;110.32;10.48;;;;;;;21.51;66.59;100269.22;10289993;28;20596;-72
2022/08/30 02:29:38;;;;;;;72.88;7.70;;;;;;;21.46;66.83;100278.06;10291624;28;20137;-72
2022/08/30 02:34:39;;;;;;;34.45;6.78;;;;;;;20.77;67.35;100178.13;10290859;28;20051;-72
2022/08/30 02:39:40;;;;;;;17.33;5.45;;;;;;;21.55;66.93;100279.31;10293092;28;20459;-72
2022/08/30 02:44:41;;;;;;;204.27;17.83;;;;;;;21.12;67.05;100209.56;10299992;28;20046;-73
2022/08/30 02:49:42;;;;;;;255.32;21.83;;;;;;;21.11;67.21;100206.03;10298596;28;20045;-72
2022/08/30 02:54:43;;;;;;;56.33;8.75;;;;;;;21.75;67.14;100289.72;10298965;28;20045;-72
2022/08/30 02:59:44;;;;;;;97.18;9.95;;;;;;;21.77;66.91;100271.34;10298767;28;20066;-72
2022/08/30 03:04:45;;;;;;;38.17;7.45;;;;;;;21.63;66.45;100219.47;10298707;28;20039;-72
2022/08/30 03:09:46;;;;;;;37.45;6.70;;;;;;;21.82;66.08;100221.94;10298994;28;20105;-73
2022/08/30 03:14:47;;;;;;;41.50;7.53;;;;;;;22.49;65.96;100305.81;10297573;28;20073;-72
2022/08/30 03:19:48;;;;;;;31.38;6.25;;;;;;;22.75;65.46;100309.72;10297373;28;20125;-73
2022/08/30 03:24:48;;;;;;;16.67;5.50;;;;;;;23.13;64.68;100321.66;10297761;28;20126;-72
2022/08/30 03:29:49;;;;;;;39.13;6.32;;;;;;;23.24;63.11;100262.94;10297678;28;20058;-73
2022/08/30 03:34:50;;;;;;;14.75;5.03;;;;;;;24.17;61.52;100316.25;10296792;28;20565;-73
2022/08/30 03:39:51;;;;;;;14.80;4.75;;;;;;;24.50;60.04;100261.69;10297415;28;20054;-73
2022/08/30 03:44:52;;;;;;;56.78;8.07;;;;;;;25.42;58.42;100315.66;10297825;28;20043;-73
2022/08/30 03:49:53;;;;;;;64.07;7.35;;;;;;;25.94;56.95;100293.78;10296007;28;20117;-73
2022/08/30 03:54:54;;;;;;;22.75;4.68;;;;;;;26.57;55.41;100319.94;10296752;28;20125;-73
2022/08/30 03:59:55;;;;;;;59.53;6.50;;;;;;;27.18;54.33;100317.03;10296656;28;20058;-75
2022/08/30 04:04:56;;;;;;;21.58;4.93;;;;;;;27.49;52.16;100325.06;10295762;28;20050;-74
2022/08/30 04:09:57;;;;;;;28.05;5.30;;;;;;;27.63;51.42;100276.16;10296151;28;20045;-73
2022/08/30 04:14:58;;;;;;;21.38;4.40;;;;;;;28.43;50.45;100325.00;10294157;28;20035;-74
2022/08/30 04:19:59;;;;;;;9.25;3.83;;;;;;;28.51;49.46;100267.00;10292519;28;20050;-76
2022/08/30 04:24:59;;;;;;;11.88;3.78;;;;;;;29.01;48.06;100316.72;10245036;28;20114;-73
2022/08/30 04:30:00;;;;;;;11.88;3.60;;;;;;;28.93;47.70;100261.88;10295449;28;20058;-76
2022/08/30 04:35:02;;;;;;;11.40;3.70;;;;;;;29.52;46.71;100318.84;10294612;28;20403;-79
2022/08/30 04:40:04;;;;;;;9.68;3.47;;;;;;;29.61;46.24;100305.28;10293421;28;20054;-76
2022/08/30 04:45:13;;;;;;;15.75;3.88;;;;;;;29.76;45.98;100307.03;10294591;28;20097;-73
2022/08/30 04:50:17;;;;;;;14.07;3.97;;;;;;;29.49;46.06;100305.72;10294326;28;20138;-72
2022/08/30 04:55:18;;;;;;;12.63;3.40;;;;;;;29.02;46.53;100302.00;10291745;28;20043;-73
2022/08/30 05:00:19;;;;;;;48.22;8.32;;;;;;;28.47;46.69;100235.06;10293723;28;20047;-73
2022/08/30 05:05:38;;;;;;;9.77;3.65;;;;;;;28.50;46.76;100239.97;10293893;28;20077;-73
2022/08/30 05:10:41;;;;;;;13.48;3.65;;;;;;;29.19;46.54;100297.94;10293816;28;20128;-72
2022/08/30 05:15:43;;;;;;;12.32;3.55;;;;;;;29.17;45.91;100297.41;10293168;28;20043;-72
2022/08/30 05:20:43;;;;;;;9.77;3.55;;;;;;;29.00;46.44;100273.28;10292850;28;20043;-73
2022/08/30 05:25:44;;;;;;;14.43;3.50;;;;;;;29.10;46.25;100287.66;10293131;28;20045;-72
2022/08/30 05:30:46;;;;;;;9.60;3.17;;;;;;;28.81;46.08;100224.03;10293170;28;20089;-73
2022/08/30 05:35:46;;;;;;;10.73;3.60;;;;;;;29.57;45.58;100298.81;10293043;28;20510;-72
2022/08/30 05:40:48;;;;;;;9.32;3.33;;;;;;;29.34;45.07;100230.16;10292770;28;20054;-72
2022/08/30 05:46:05;;;;;;;13.85;3.70;;;;;;;29.73;45.18;100291.19;10292370;28;20074;-72
2022/08/30 05:51:07;;;;;;;13.55;3.92;;;;;;;29.85;44.46;100298.94;10292694;28;20435;-71
2022/08/30 05:56:11;;;;;;;9.52;4.15;;;;;;;29.91;44.51;100301.31;10292368;28;20043;-73
2022/08/30 06:01:27;;;;;;;12.77;3.45;;;;;;;30.00;44.48;100294.06;10291588;28;20046;-72
2022/08/30 06:06:29;;;;;;;10.90;3.30;;;;;;;29.80;43.87;100229.47;10292523;28;20413;-72
2022/08/30 06:11:31;;;;;;;13.05;3.88;;;;;;;30.53;43.46;100303.03;10291302;28;20635;-73
2022/08/30 06:16:34;;;;;;;11.77;3.67;;;;;;;30.28;43.01;100231.16;10291805;28;20043;-74
2022/08/30 06:21:35;;;;;;;;;;;;;;;30.62;43.70;100293.00;10292292;28;20042;-72
2022/08/30 06:26:40;;;;;;;9.15;3.50;;;;;;;30.20;44.00;100292.91;10291522;28;19929;-74
2022/08/30 06:31:41;;;;;;;9.52;3.30;;;;;;;30.35;43.77;100285.56;10290828;28;20089;-75
2022/08/30 06:36:42;;;;;;;15.75;3.88;;;;;;;30.82;42.75;100289.91;10290896;28;20043;-73
2022/08/30 06:41:43;;;;;;;10.55;3.83;;;;;;;31.20;41.92;100273.19;10291580;28;20047;-73
2022/08/30 06:46:43;;;;;;;13.48;3.75;;;;;;;31.48;41.45;100275.91;10290919;28;20148;-73
2022/08/30 06:51:44;;;;;;;18.55;7.70;;;;;;;31.77;41.08;100276.31;10291116;28;20043;-75
2022/08/30 06:56:45;;;;;;;29.33;14.57;;;;;;;31.89;39.85;100252.94;10290331;28;20594;-74
2022/08/30 07:01:46;;;;;;;10.65;5.35;;;;;;;32.25;39.80;100272.13;10291079;28;20047;-75
2022/08/30 07:06:46;;;;;;;15.27;5.03;;;;;;;32.44;38.95;100286.47;10291131;28;20047;-73
2022/08/30 07:11:47;;;;;;;12.60;4.28;;;;;;;32.22;37.95;100202.13;10290078;28;20051;-73
2022/08/30 07:16:48;;;;;;;13.32;4.18;;;;;;;32.87;38.24;100277.56;10290513;28;20043;-73
2022/08/30 07:21:49;;;;;;;22.98;4.78;;;;;;;32.45;37.60;100185.56;10290664;28;20058;-73
2022/08/30 07:26:50;;;;;;;13.25;4.15;;;;;;;33.19;37.07;100246.13;10294382;28;20076;-74
2022/08/30 07:31:51;;;;;;;18.63;4.30;;;;;;;33.04;37.03;100197.06;10297082;28;20069;-76
2022/08/30 07:36:52;;;;;;;22.58;4.70;;;;;;;33.46;36.31;100244.19;10297504;28;20054;-73
2022/08/30 07:41:52;;;;;;;19.38;5.30;;;;;;;33.29;35.72;100183.63;10296769;28;20039;-73
2022/08/30 07:46:53;;;;;;;16.88;5.07;;;;;;;33.78;35.14;100220.06;10296276;28;20185;-74
2022/08/30 07:51:56;;;;;;;19.02;4.78;;;;;;;33.99;34.42;100232.00;10296903;28;20104;-75
2022/08/30 07:56:56;;;;;;;19.35;5.00;;;;;;;33.48;34.25;100115.25;10296756;28;20498;-75
2022/08/30 08:01:57;;;;;;;22.73;5.50;;;;;;;34.10;33.93;100204.91;10296603;28;20050;-74
2022/08/30 08:06:58;;;;;;;17.25;5.90;;;;;;;34.39;33.36;100208.88;10296360;28;20042;-72
2022/08/30 08:11:59;;;;;;;22.67;5.07;;;;;;;34.59;32.83;100210.91;10296447;28;20380;-73
2022/08/30 08:17:00;;;;;;;27.33;5.13;;;;;;;34.45;32.70;100147.66;10295325;28;20097;-72
2022/08/30 08:22:01;;;;;;;40.42;5.80;;;;;;;34.98;31.97;100201.41;10295684;28;20059;-72
2022/08/30 08:27:02;;;;;;;31.83;5.50;;;;;;;34.59;31.85;100130.09;10294765;28;20495;-73
2022/08/30 08:32:03;;;;;;;24.42;4.78;;;;;;;35.02;31.51;100181.41;10295920;28;20047;-73
2022/08/30 08:37:04;;;;;;;23.87;4.87;;;;;;;35.30;31.22;100193.56;10294646;28;20077;-73
2022/08/30 08:42:28;;;;;;;15.80;5.03;;;;;;;35.35;30.82;100171.25;10294944;28;20066;-74
2022/08/30 08:47:37;;;;;;;16.05;4.78;;;;;;;35.18;30.68;100190.72;10294704;28;20046;-74
2022/08/30 08:53:35;;;;;;;24.23;5.22;;;;;;;35.35;29.94;100184.25;10294035;28;20491;-74
2022/08/30 08:58:45;;;;;;;16.63;4.45;;;;;;;34.99;30.31;100136.78;10210000;29;20048;-75
2022/08/30 09:03:47;;;;;;;21.67;5.10;;;;;;;35.12;30.03;100159.78;10281465;28;20470;-75
2022/08/30 09:08:48;;;;;;;20.50;5.07;;;;;;;35.34;30.19;100172.41;10290415;28;20039;-74
2022/08/30 09:13:49;;;;;;;40.67;6.07;;;;;;;35.59;30.47;100142.13;10280885;28;20486;-74
2022/08/30 09:18:49;;;;;;;25.85;6.10;;;;;;;35.59;29.51;100128.31;10271841;28;20526;-74
2022/08/30 09:23:57;;;;;;;19.38;5.35;;;;;;;35.86;29.30;100151.75;10272649;28;20042;-73
2022/08/30 09:28:59;;;;;;;22.92;5.32;;;;;;;35.84;28.92;100157.63;10278656;28;20406;-74
2022/08/30 09:34:06;;;;;;;27.75;5.72;;;;;;;35.86;28.46;100147.00;10271049;28;20083;-74
2022/08/30 09:39:16;;;;;;;27.88;5.10;;;;;;;35.55;28.81;100097.00;10274186;28;20038;-75
2022/08/30 09:44:20;;;;;;;19.13;4.60;;;;;;;35.27;28.51;100044.28;10280757;28;20133;-72
2022/08/30 09:49:32;;;;;;;27.70;5.22;;;;;;;36.10;27.90;100137.16;10274435;28;20160;-72
2022/08/30 09:54:43;;;;;;;16.30;4.40;;;;;;;36.31;28.88;100135.09;10273981;28;20506;-73
2022/08/30 10:00:06;;;;;;;17.65;4.20;;;;;;;36.21;28.10;100080.25;10272692;28;20043;-73
2022/08/30 10:05:24;;;;;;;43.38;6.03;;;;;;;36.63;28.16;100126.22;10274507;28;20046;-74
2022/08/30 10:10:32;;;;;;;25.17;5.47;;;;;;;36.77;28.24;100130.22;10291779;28;20046;-73
2022/08/30 10:16:09;;;;;;;71.80;7.97;;;;;;;37.06;28.70;100131.06;10291092;28;20035;-73
2022/08/30 10:21:24;;;;;;;21.77;4.78;;;;;;;36.92;27.22;100141.72;10290926;28;20499;-73
2022/08/30 10:26:34;;;;;;;41.45;5.95;;;;;;;36.94;27.43;100125.53;10291017;28;20039;-73
2022/08/30 10:31:53;;;;;;;23.95;5.20;;;;;;;37.03;26.90;100131.78;10291955;28;20090;-72
2022/08/30 10:37:09;;;;;;;19.88;5.50;;;;;;;36.67;26.84;100058.72;10290270;28;20398;-71
2022/08/30 10:42:19;;;;;;;18.20;4.55;;;;;;;36.91;27.08;100104.09;10290010;28;20042;-74
2022/08/30 10:47:41;;;;;;;44.38;5.78;;;;;;;36.90;26.89;100108.03;10291320;28;20513;-72
2022/08/30 10:53:06;;;;;;;33.30;5.25;;;;;;;36.85;26.40;100095.22;10289332;28;20407;-71
2022/08/30 10:58:25;;;;;;;17.77;4.60;;;;;;;36.67;27.71;100088.38;10291438;28;20039;-71
2022/08/30 11:03:58;;;;;;;19.50;5.13;;;;;;;36.99;27.59;100097.63;10296943;28;20047;-73
2022/08/30 11:09:09;;;;;;;29.08;5.05;;;;;;;36.46;27.42;100014.63;10298281;28;20058;-71
2022/08/30 11:14:16;;;;;;;18.38;5.18;;;;;;;36.98;26.97;100084.94;10298435;28;20035;-70
2022/08/30 11:19:23;;;;;;;15.90;4.88;;;;;;;36.94;26.77;100072.94;10298293;28;20039;-73
2022/08/30 11:24:24;;;;;;;21.08;4.78;;;;;;;36.77;27.34;100066.56;10296381;28;20042;-71
2022/08/30 11:29:25;;;;;;;26.00;5.97;;;;;;;36.76;27.10;100059.38;10297781;28;20063;-71
2022/08/30 11:34:44;;;;;;;19.63;5.07;;;;;;;36.88;26.56;100068.81;10297814;28;20055;-72
2022/08/30 11:39:48;;;;;;;28.15;4.68;;;;;;;36.53;26.09;99998.28;10296798;28;20149;-72
2022/08/30 11:44:49;;;;;;;20.77;4.88;;;;;;;36.58;26.87;99999.16;10297828;28;20562;-71
2022/08/30 11:49:55;;;;;;;21.60;4.57;;;;;;;36.99;26.89;100048.63;10297937;28;20129;-71
2022/08/30 11:55:24;;;;;;;38.85;5.75;;;;;;;37.08;26.41;100061.50;10296262;28;20415;-72
2022/08/30 12:00:40;;;;;;;20.50;4.78;;;;;;;36.50;26.27;99976.81;10297133;28;20078;-72
2022/08/30 12:05:44;;;;;;;22.17;5.05;;;;;;;36.54;26.15;99988.81;10295385;28;20070;-72
2022/08/30 12:10:45;;;;;;;19.33;7.07;;;;;;;36.93;26.78;100024.28;10295901;28;20054;-72
2022/08/30 12:15:59;;;;;;;35.80;6.30;;;;;;;37.00;26.59;100038.34;10296199;28;20494;-72
2022/08/30 12:21:28;;;;;;;25.70;5.78;;;;;;;36.49;26.46;99964.13;10294254;28;20043;-71
2022/08/30 12:26:57;;;;;;;15.68;5.00;;;;;;;36.86;27.31;100032.41;10295070;28;20047;-71
2022/08/30 12:32:00;;;;;;;39.08;6.45;;;;;;;36.70;27.40;100027.59;10293686;28;20097;-71
2022/08/30 12:37:28;;;;;;;19.30;4.43;;;;;;;36.80;27.24;100012.47;10294624;28;20077;-71
2022/08/30 12:42:32;;;;;;;22.98;5.32;;;;;;;36.81;26.36;100014.06;10293629;28;20499;-72
2022/08/30 12:47:33;;;;;;;31.05;6.55;;;;;;;36.76;26.92;100012.34;10272233;28;20070;-73
2022/08/30 12:52:41;;;;;;;26.88;6.78;;;;;;;36.75;26.09;100016.28;10271660;28;20068;-72
2022/08/30 12:57:54;;;;;;;27.02;5.85;;;;;;;36.75;26.30;99998.88;10274807;28;20043;-72
2022/08/30 13:03:15;;;;;;;19.42;5.15;;;;;;;36.89;26.39;100009.53;10272247;28;20502;-72
2022/08/30 13:08:24;;;;;;;27.40;5.60;;;;;;;36.60;26.70;99960.91;10271417;28;20047;-72
2022/08/30 13:13:42;;;;;;;13.63;4.47;;;;;;;36.96;26.03;99999.44;10270982;28;20043;-72
2022/08/30 13:18:44;;;;;;;42.35;6.47;;;;;;;36.56;27.25;99983.72;10270206;28;20035;-72
2022/08/30 13:23:46;;;;;;;31.48;5.40;;;;;;;36.62;26.57;99991.75;10276250;28;20035;-72
2022/08/30 13:28:59;;;;;;;20.80;4.88;;;;;;;36.22;25.71;99929.75;10271095;28;20058;-71
2022/08/30 13:34:01;;;;;;;20.17;4.72;;;;;;;36.44;26.41;99992.06;10273967;28;20142;-72
2022/08/30 13:39:03;;;;;;;;;;;;;;;36.65;26.58;99996.63;10271250;28;20035;-72
2022/08/30 13:44:04;;;;;;;24.80;5.18;;;;;;;36.33;26.59;99969.59;10271820;28;20000;-72
2022/08/30 13:49:09;;;;;;;21.77;6.53;;;;;;;36.26;26.32;99991.53;10288258;28;20050;-72
2022/08/30 13:54:09;;;;;;;16.83;4.88;;;;;;;35.86;26.99;99938.91;10292412;28;20537;-72
2022/08/30 13:59:10;;;;;;;39.35;8.45;;;;;;;35.75;26.66;99919.25;10292031;28;20047;-73
2022/08/30 14:04:11;;;;;;;32.88;5.85;;;;;;;35.69;27.14;99939.16;10292149;28;20050;-72
2022/08/30 14:09:13;;;;;;;29.25;5.68;;;;;;;35.81;26.55;99975.06;10291097;28;20056;-72
2022/08/30 14:14:14;;;;;;;182.40;15.57;;;;;;;35.29;27.46;99921.31;10292296;28;20126;-72
2022/08/30 14:19:16;;;;;;;21.90;5.40;;;;;;;35.42;27.11;99946.97;10291625;28;20042;-72
2022/08/30 14:24:18;;;;;;;31.33;5.97;;;;;;;35.46;27.24;99969.22;10291717;28;20121;-72
2022/08/30 14:29:24;;;;;;;25.70;5.00;;;;;;;34.56;28.13;99854.97;10290612;28;20143;-72
2022/08/30 14:34:25;;;;;;;83.60;11.18;;;;;;;35.14;29.18;99968.94;10292751;28;20055;-73
2022/08/30 14:39:26;;;;;;;44.88;6.40;;;;;;;34.92;29.16;99965.41;10298411;28;20422;-73
2022/08/30 14:44:28;;;;;;;27.15;5.13;;;;;;;34.36;29.36;99904.25;10291843;28;20085;-73
2022/08/30 14:49:28;;;;;;;89.97;11.47;;;;;;;34.23;30.34;99911.69;10284753;28;20078;-73
2022/08/30 14:54:30;;;;;;;84.22;11.35;;;;;;;34.26;32.19;99960.63;10286696;28;20039;-74
2022/08/30 14:59:32;;;;;;;99.13;10.35;;;;;;;33.82;33.57;99934.47;10278935;28;20463;-72
2022/08/30 15:04:33;;;;;;;18.90;5.43;;;;;;;33.58;33.90;99949.69;10282648;28;20046;-73
2022/08/30 15:09:34;;;;;;;98.35;12.65;;;;;;;33.31;36.10;99958.38;10283895;28;20051;-72
2022/08/30 15:14:35;;;;;;;99.10;12.07;;;;;;;32.98;37.79;99956.19;10276020;28;20562;-72
2022/08/30 15:19:38;;;;;;;64.53;8.60;;;;;;;32.64;38.87;99962.56;10277260;28;20197;-72
2022/08/30 15:24:39;;;;;;;116.28;12.02;;;;;;;32.32;40.22;99953.63;10283015;28;20042;-73
2022/08/30 15:29:41;;;;;;;92.38;11.23;;;;;;;32.02;41.17;99961.69;10276055;28;20103;-73
2022/08/30 15:34:41;;;;;;;52.83;7.15;;;;;;;31.69;42.37;99960.44;10276240;28;20057;-73
2022/08/30 15:39:42;;;;;;;50.17;7.50;;;;;;;31.39;42.73;99954.69;10277007;28;20138;-73
2022/08/30 15:44:43;;;;;;;52.53;7.78;;;;;;;31.12;44.10;99967.44;10282094;28;20045;-73
2022/08/30 15:49:44;;;;;;;52.83;7.22;;;;;;;30.68;44.69;99940.84;10273345;28;20058;-73
2022/08/30 15:54:44;;;;;;;44.22;7.78;;;;;;;30.52;46.27;99961.53;10276488;28;20039;-73
2022/08/30 15:59:45;;;;;;;120.57;13.07;;;;;;;30.16;47.21;99937.66;10280282;28;20054;-73
2022/08/30 16:04:46;;;;;;;61.58;8.63;;;;;;;30.04;48.32;99962.84;10280146;28;20094;-73
2022/08/30 16:09:47;;;;;;;66.70;10.43;;;;;;;29.76;49.27;99956.59;10278332;28;20042;-73
2022/08/30 16:14:48;;;;;;;128.45;13.13;;;;;;;29.58;50.07;99971.97;10280853;28;20067;-72
2022/08/30 16:19:49;;;;;;;144.15;14.57;;;;;;;29.43;51.19;99981.28;10282790;28;20066;-72
2022/08/30 16:24:50;;;;;;;164.52;15.45;;;;;;;29.27;50.62;99993.63;10295915;28;20042;-71
2022/08/30 16:29:51;;;;;;;96.55;11.52;;;;;;;28.76;51.61;99935.13;10296368;28;20101;-72
2022/08/30 16:34:52;;;;;;;84.03;11.73;;;;;;;28.87;51.18;99987.72;10294822;28;20043;-72
2022/08/30 16:39:53;;;;;;;83.00;14.23;;;;;;;28.84;51.62;99994.59;10295362;28;20153;-72
2022/08/30 16:44:54;;;;;;;292.85;116.68;;;;;;;28.65;51.60;99982.88;10294977;28;20034;-72
2022/08/30 16:49:55;;;;;;;430.05;162.23;;;;;;;28.44;52.32;99974.97;10295435;28;20506;-72
2022/08/30 16:54:56;;;;;;;329.10;125.60;;;;;;;28.43;53.36;99989.75;10294584;28;20070;-72
2022/08/30 16:59:57;;;;;;;346.63;131.30;;;;;;;28.18;53.58;99985.44;10291708;28;20047;-72
2022/08/30 17:04:57;;;;;;;501.02;245.82;;;;;;;28.12;54.33;99997.53;10277036;28;20113;-73
2022/08/30 17:09:58;;;;;;;581.42;317.42;;;;;;;27.93;54.58;100002.16;10293694;28;20517;-73
2022/08/30 17:14:59;;;;;;;465.92;226.23;;;;;;;27.71;55.53;99997.19;10293643;28;20047;-74
2022/08/30 17:20:00;;;;;;;264.40;105.78;;;;;;;27.63;55.77;99998.63;10292936;28;20062;-71
2022/08/30 17:25:01;;;;;;;241.13;92.57;;;;;;;27.43;55.75;100012.47;10287692;28;20513;-69
2022/08/30 17:30:04;;;;;;;133.68;50.53;;;;;;;27.21;57.16;100016.50;10293647;28;20059;-75
2022/08/30 17:35:05;;;;;;;;;;;;;;;27.37;54.60;100016.38;10293718;28;20042;-72
2022/08/30 17:40:06;;;;;;;85.72;26.13;;;;;;;26.98;55.97;100019.94;10292976;28;19922;-72
2022/08/30 17:45:09;;;;;;;74.35;19.02;;;;;;;26.88;56.90;100017.31;10291797;28;20085;-71
2022/08/30 17:50:10;;;;;;;69.50;17.83;;;;;;;26.37;55.94;99926.66;10292629;28;20069;-73
2022/08/30 17:55:11;;;;;;;64.28;18.52;;;;;;;26.86;55.86;100004.78;10292077;28;20118;-71
2022/08/30 18:00:13;;;;;;;126.78;39.38;;;;;;;26.84;56.76;100017.88;10290054;28;20041;-72
2022/08/30 18:05:14;;;;;;;89.03;23.83;;;;;;;26.89;56.09;100016.22;10290376;28;20046;-73
2022/08/30 18:10:15;;;;;;;85.90;22.02;;;;;;;26.85;56.23;100003.16;10275829;28;20071;-74
2022/08/30 18:15:16;;;;;;;72.70;19.88;;;;;;;26.65;56.23;99986.94;10289083;28;20519;-72
2022/08/30 18:20:17;;;;;;;65.18;19.23;;;;;;;26.72;56.29;100013.91;10290967;28;20149;-71
2022/08/30 18:25:18;;;;;;;74.32;18.63;;;;;;;26.09;57.02;99916.50;10290800;28;20038;-75
2022/08/30 18:30:19;;;;;;;67.20;17.42;;;;;;;26.36;57.56;99979.50;10290459;28;20067;-74
2022/08/30 18:35:21;;;;;;;54.93;16.23;;;;;;;26.53;57.04;100009.09;10290875;28;20418;-72
2022/08/30 18:40:22;;;;;;;52.88;15.85;;;;;;;26.00;57.15;99937.25;10291148;28;20039;-76
2022/08/30 18:45:23;;;;;;;52.08;15.73;;;;;;;25.87;56.71;99920.41;10290539;28;20065;-73
2022/08/30 18:50:24;;;;;;;65.05;15.30;;;;;;;26.19;56.44;99973.59;10289517;28;20167;-74
2022/08/30 18:55:25;;;;;;;76.07;17.17;;;;;;;26.05;57.64;99965.22;10289453;28;20074;-72
2022/08/30 19:00:27;;;;;;;47.72;13.77;;;;;;;26.09;56.89;99995.44;10289436;28;20043;-74
2022/08/30 19:05:28;;;;;;;53.55;14.68;;;;;;;25.94;56.72;99980.78;10275102;28;20110;-73
2022/08/30 19:10:29;;;;;;;53.67;13.48;;;;;;;25.81;57.67;99994.94;10267105;28;20070;-73
2022/08/30 19:15:33;;;;;;;43.85;13.13;;;;;;;25.25;57.00;99921.72;10268982;28;21643;-73
2022/08/30 19:20:33;;;;;;;;;;;;;;;25.84;56.39;99994.44;10267792;28;20047;-72
2022/08/30 19:25:34;;;;;;;43.35;11.90;;;;;;;25.57;57.57;99983.88;10276853;28;20442;-73
2022/08/30 19:30:35;;;;;;;68.75;12.70;;;;;;;25.44;57.77;99982.56;10274547;28;20078;-72
2022/08/30 19:35:36;;;;;;;33.67;9.55;;;;;;;25.42;56.77;99987.44;10275976;28;20101;-72
2022/08/30 19:40:37;;;;;;;34.90;10.40;;;;;;;25.08;56.39;99945.63;10286120;28;20485;-72
2022/08/30 19:45:38;;;;;;;47.60;10.60;;;;;;;25.29;56.96;99982.59;10297368;28;20046;-73
2022/08/30 19:50:39;;;;;;;36.00;10.40;;;;;;;25.20;57.92;99978.78;10295184;28;20042;-73
2022/08/30 19:55:40;;;;;;;34.55;9.05;;;;;;;24.85;57.25;99934.22;10294761;28;20043;-72
2022/08/30 20:00:44;;;;;;;32.63;9.25;;;;;;;25.02;56.98;99986.38;10295634;28;20042;-72
2022/08/30 20:05:44;;;;;;;31.35;9.15;;;;;;;24.80;56.86;99961.41;10296614;28;20034;-72
2022/08/30 20:10:45;;;;;;;27.15;8.30;;;;;;;24.80;56.86;99958.69;10295165;28;20509;-72
2022/08/30 20:15:54;;;;;;;30.52;9.00;;;;;;;24.92;56.37;99980.13;10296199;28;20046;-72
2022/08/30 20:20:55;;;;;;;37.70;8.02;;;;;;;24.86;56.60;99968.47;10295968;28;20619;-72
2022/08/30 20:25:56;;;;;;;28.52;7.22;;;;;;;24.43;56.10;99902.72;10294050;28;20093;-72
2022/08/30 20:30:57;;;;;;;62.90;8.57;;;;;;;24.80;56.63;99975.78;10296410;28;20063;-72
2022/08/30 20:36:02;;;;;;;53.55;9.50;;;;;;;24.71;57.01;99968.44;10295794;28;20089;-72
2022/08/30 20:41:09;;;;;;;41.92;8.85;;;;;;;24.27;57.18;99901.84;10294629;28;20042;-72
2022/08/30 20:46:13;;;;;;;32.15;8.23;;;;;;;24.51;57.43;99955.66;10295512;28;20044;-72
2022/08/30 20:51:16;;;;;;;29.42;7.05;;;;;;;24.15;58.50;99896.69;10294828;28;20077;-72
2022/08/30 20:56:20;;;;;;;101.00;10.52;;;;;;;24.46;58.97;99959.19;10294593;28;20487;-72
2022/08/30 21:01:22;;;;;;;36.67;8.82;;;;;;;23.98;58.10;99879.81;10293771;28;20046;-73
2022/08/30 21:06:24;;;;;;;26.80;8.18;;;;;;;24.35;58.63;99946.63;10294303;28;20042;-72
2022/08/30 21:11:26;;;;;;;36.33;8.00;;;;;;;24.38;58.00;99957.00;10294062;28;20093;-72
2022/08/30 21:16:29;;;;;;;36.53;7.85;;;;;;;23.81;57.78;99868.38;10293948;28;20050;-72
2022/08/30 21:21:31;;;;;;;31.33;7.50;;;;;;;24.33;57.00;99956.97;10293982;28;20399;-72
2022/08/30 21:26:32;;;;;;;43.13;8.00;;;;;;;24.23;57.43;99955.06;10293035;28;20035;-72
2022/08/30 21:31:36;;;;;;;39.75;9.32;;;;;;;24.18;58.12;99962.38;10293557;28;20093;-72
2022/08/30 21:36:46;;;;;;;38.88;12.40;;;;;;;23.71;57.99;99890.84;10292648;28;20035;-72
2022/08/30 21:41:49;;;;;;;28.63;7.05;;;;;;;23.98;56.44;99944.13;10293141;28;20050;-72
2022/08/30 21:46:52;;;;;;;35.78;6.68;;;;;;;24.09;56.49;99959.34;10291744;28;20043;-71
2022/08/30 21:51:54;;;;;;;34.27;7.00;;;;;;;24.03;56.58;99941.44;10292544;28;20046;-72
2022/08/30 21:57:01;;;;;;;27.10;6.15;;;;;;;23.96;56.15;99952.53;10291913;28;20039;-72
2022/08/30 22:02:02;;;;;;;26.17;5.82;;;;;;;24.05;56.32;99942.78;10292398;28;20053;-72
2022/08/30 22:07:05;;;;;;;20.05;5.40;;;;;;;24.02;56.00;99932.47;10292410;28;20043;-72
2022/08/30 22:12:06;;;;;;;24.90;5.05;;;;;;;23.98;56.42;99938.69;10292073;28;20406;-72
2022/08/30 22:17:07;;;;;;;32.45;6.47;;;;;;;23.87;56.63;99941.38;10292462;28;20610;-72
2022/08/30 22:22:08;;;;;;;111.97;9.63;;;;;;;23.68;57.36;99938.25;10291202;28;20174;-72
2022/08/30 22:27:08;;;;;;;72.22;8.80;;;;;;;23.57;57.59;99936.63;10290912;28;20042;-73
2022/08/30 22:32:09;;;;;;;20.63;5.13;;;;;;;23.03;57.85;99888.03;10291481;28;20042;-72
2022/08/30 22:37:10;;;;;;;32.70;5.78;;;;;;;23.32;58.07;99931.03;10291368;28;20046;-72
2022/08/30 22:42:11;;;;;;;26.02;5.50;;;;;;;23.26;57.71;99932.91;10291906;28;20527;-72
2022/08/30 22:47:12;;;;;;;31.40;6.45;;;;;;;23.08;59.34;99920.59;10291070;28;20035;-72
2022/08/30 22:52:13;;;;;;;27.33;5.75;;;;;;;23.13;59.42;99925.25;10290705;28;20051;-72
2022/08/30 22:57:17;;;;;;;38.20;6.68;;;;;;;23.08;59.11;99927.91;10296013;28;20173;-72
2022/08/30 23:02:17;;;;;;;24.13;5.78;;;;;;;23.02;59.60;99924.34;10298339;28;20039;-72
2022/08/30 23:07:18;;;;;;;30.00;5.55;;;;;;;22.49;60.02;99855.69;10299323;28;20039;-72